Time;durP1;ratioP1;P1;durP2;ratioP2;P2;SDS_P1;SDS_P2;PMS_P1;PMS_P2;Temp;Humidity;BMP_temperature;BMP_pressure;BME280_temperature;BME280_humidity;BME280_pressure;Samples;Min_cycle;Max_cycle;Signal;HPM_P1;HPM_P2
2023/09/12 00:01:22;;;;;;;5.28;4.88;;;19.30;99.90;;;;;;5013650;28;20042;-64
2023/09/12 00:03:48;;;;;;;4.65;4.35;;;19.30;99.90;;;;;;5013277;28;20401;-64
2023/09/12 00:06:14;;;;;;;4.53;4.13;;;19.40;99.90;;;;;;5013464;28;20053;-64
2023/09/12 00:08:39;;;;;;;5.10;4.70;;;19.60;99.90;;;;;;5011876;28;20119;-63
2023/09/12 00:11:13;;;;;;;5.43;5.00;;;20.20;99.90;;;;;;5013239;28;20077;-63
2023/09/12 00:13:41;;;;;;;5.65;4.72;;;19.30;99.90;;;;;;5012264;28;20040;-64
2023/09/12 00:16:11;;;;;;;5.30;4.80;;;19.80;99.90;;;;;;5013457;28;20042;-63
2023/09/12 00:18:39;;;;;;;5.70;5.20;;;19.40;99.90;;;;;;5013433;28;20046;-63
2023/09/12 00:21:04;;;;;;;4.82;4.43;;;19.10;99.90;;;;;;5012028;28;20045;-63
2023/09/12 00:23:30;;;;;;;4.85;4.45;;;20.20;99.90;;;;;;5013121;28;20096;-66
2023/09/12 00:25:57;;;;;;;5.18;4.78;;;19.50;99.90;;;;;;5013036;28;20037;-66
2023/09/12 00:28:23;;;;;;;4.70;4.35;;;19.30;99.90;;;;;;5013389;28;20034;-66
2023/09/12 00:30:48;;;;;;;5.22;4.45;;;19.30;99.90;;;;;;5013389;28;20362;-66
2023/09/12 00:33:14;;;;;;;4.68;4.28;;;19.40;99.90;;;;;;5013272;28;20389;-66
2023/09/12 00:35:39;;;;;;;4.88;4.47;;;19.10;99.90;;;;;;5011700;28;20053;-66
2023/09/12 00:38:06;;;;;;;4.90;4.50;;;19.10;99.90;;;;;;5013259;28;20038;-67
2023/09/12 00:40:32;;;;;;;5.50;5.03;;;19.20;99.90;;;;;;5013218;28;20041;-66
2023/09/12 00:42:58;;;;;;;4.65;4.35;;;19.10;99.90;;;;;;5012228;28;20054;-63
2023/09/12 00:45:24;;;;;;;5.13;4.63;;;19.20;99.90;;;;;;5013055;28;20033;-63
2023/09/12 00:47:52;;;;;;;5.22;4.82;;;19.10;99.90;;;;;;5013089;28;20133;-63
2023/09/12 00:50:18;;;;;;;4.70;4.30;;;19.10;99.90;;;;;;5013111;28;20034;-63
2023/09/12 00:52:45;;;;;;;5.38;4.97;;;19.00;99.90;;;;;;5013114;28;20038;-62
2023/09/12 00:55:11;;;;;;;5.20;4.75;;;19.80;99.90;;;;;;5012801;28;20049;-62
2023/09/12 00:57:37;;;;;;;5.80;5.32;;;19.10;99.90;;;;;;5013134;28;20124;-62
2023/09/12 01:00:12;;;;;;;4.13;3.83;;;19.00;99.90;;;;;;5013084;28;20076;-63
2023/09/12 01:02:39;;;;;;;5.65;5.15;;;19.10;99.90;;;;;;5012828;28;20054;-63
2023/09/12 01:05:07;;;;;;;6.47;5.03;;;18.90;99.90;;;;;;5012985;28;20462;-63
2023/09/12 01:07:33;;;;;;;4.90;4.50;;;18.80;99.90;;;;;;5012966;28;20042;-63
2023/09/12 01:09:59;;;;;;;5.38;4.88;;;19.10;99.90;;;;;;5012983;28;20104;-62
2023/09/12 01:12:25;;;;;;;5.68;5.18;;;18.80;99.90;;;;;;5012990;28;20038;-63
2023/09/12 01:14:51;;;;;;;5.55;5.07;;;19.20;99.90;;;;;;5011275;28;20159;-63
2023/09/12 01:17:16;;;;;;;5.05;4.65;;;19.40;99.90;;;;;;5011567;28;20438;-63
2023/09/12 01:19:42;;;;;;;4.82;4.43;;;19.40;99.90;;;;;;5015388;28;20503;-63
2023/09/12 01:22:30;;;;;;;5.35;4.93;;;19.50;99.90;;;;;;5016242;28;20080;-63
2023/09/12 01:25:24;;;;;;;5.47;4.93;;;18.90;99.90;;;;;;5015098;28;20076;-62
2023/09/12 01:27:51;;;;;;;5.65;5.15;;;18.90;99.90;;;;;;5016156;28;20129;-63
2023/09/12 01:30:20;;;;;;;5.53;5.03;;;19.10;99.90;;;;;;5015193;28;20405;-64
2023/09/12 01:32:46;;;;;;;5.35;4.85;;;19.00;99.90;;;;;;5016490;28;20618;-72
2023/09/12 01:35:12;;;;;;;6.28;5.50;;;19.20;99.90;;;;;;5015005;28;20057;-71
2023/09/12 01:37:38;;;;;;;5.13;4.72;;;19.00;99.90;;;;;;5016274;28;20041;-71
2023/09/12 01:40:04;;;;;;;5.68;5.18;;;19.60;99.90;;;;;;5016221;28;20120;-71
2023/09/12 01:42:36;;;;;;;5.32;4.93;;;18.90;99.90;;;;;;5016170;28;20054;-71
2023/09/12 01:45:03;;;;;;;5.50;5.10;;;19.10;99.90;;;;;;5016050;28;20132;-72
2023/09/12 01:47:29;;;;;;;6.10;5.60;;;19.10;99.90;;;;;;5015734;28;20049;-71
2023/09/12 01:49:58;;;;;;;6.00;5.43;;;19.20;99.90;;;;;;5016064;28;20066;-72
2023/09/12 01:52:26;;;;;;;6.00;5.50;;;19.20;99.90;;;;;;5016085;28;20498;-72
2023/09/12 01:54:52;;;;;;;5.28;4.85;;;18.90;99.90;;;;;;4998099;28;20041;-73
2023/09/12 01:57:20;;;;;;;5.72;5.30;;;19.00;99.90;;;;;;5015639;28;20159;-73
2023/09/12 01:59:47;;;;;;;5.43;4.93;;;;;;;;;;5014313;28;20069;-72
2023/09/12 02:02:13;;;;;;;5.55;5.07;;;;;;;;;;5015871;28;20038;-72
2023/09/12 02:04:39;;;;;;;5.55;5.15;;;18.70;99.90;;;;;;5015267;28;20104;-72
2023/09/12 02:07:04;;;;;;;5.97;5.47;;;18.60;99.90;;;;;;4997871;28;20128;-71
2023/09/12 02:09:30;;;;;;;5.85;5.35;;;18.60;99.90;;;;;;5015380;28;20081;-72
2023/09/12 02:11:55;;;;;;;6.40;5.82;;;18.60;99.90;;;;;;5014491;28;20041;-71
2023/09/12 02:14:21;;;;;;;6.43;5.93;;;19.30;99.90;;;;;;5014267;28;20038;-71
2023/09/12 02:16:47;;;;;;;5.72;5.25;;;19.30;99.90;;;;;;5015581;28;20042;-70
2023/09/12 02:19:12;;;;;;;6.35;5.75;;;18.60;99.90;;;;;;5014307;28;20103;-72
2023/09/12 02:21:38;;;;;;;6.07;5.57;;;18.60;99.90;;;;;;5015438;28;20044;-72
2023/09/12 02:24:04;;;;;;;6.18;5.68;;;18.60;99.90;;;;;;5013962;28;20073;-72
2023/09/12 02:26:30;;;;;;;6.47;5.88;;;18.60;99.90;;;;;;5015310;28;20563;-71
2023/09/12 02:28:55;;;;;;;6.05;5.55;;;18.50;99.90;;;;;;5014150;28;20045;-71
2023/09/12 02:31:21;;;;;;;6.05;5.55;;;18.70;99.90;;;;;;4997138;28;20104;-72
2023/09/12 02:33:47;;;;;;;6.63;6.03;;;18.40;99.90;;;;;;5014936;28;20034;-71
2023/09/12 02:36:13;;;;;;;6.43;5.85;;;18.50;99.90;;;;;;5013708;28;20449;-72
2023/09/12 02:38:38;;;;;;;6.88;6.28;;;18.50;99.90;;;;;;5013683;28;20084;-72
2023/09/12 02:41:04;;;;;;;5.53;5.05;;;18.50;99.90;;;;;;5015193;28;20042;-72
2023/09/12 02:43:30;;;;;;;5.40;4.85;;;18.80;99.90;;;;;;5015077;28;20080;-63
2023/09/12 02:45:56;;;;;;;6.72;6.13;;;18.50;99.90;;;;;;5013798;28;20390;-63
2023/09/12 02:48:21;;;;;;;7.20;6.50;;;18.40;99.90;;;;;;5014605;28;20065;-63
2023/09/12 02:50:47;;;;;;;6.22;5.72;;;18.40;99.90;;;;;;5014912;28;20038;-63
2023/09/12 02:53:12;;;;;;;5.75;5.25;;;18.50;99.90;;;;;;5014845;28;20513;-63
2023/09/12 02:55:42;;;;;;;6.22;5.72;;;18.40;99.90;;;;;;5014799;28;20049;-63
2023/09/12 02:58:08;;;;;;;6.45;5.95;;;18.30;99.90;;;;;;5014791;28;20064;-63
2023/09/12 03:00:39;;;;;;;6.10;5.60;;;18.40;99.90;;;;;;5014634;28;20050;-63
2023/09/12 03:03:05;;;;;;;6.10;5.60;;;18.40;99.90;;;;;;5014547;28;20054;-62
2023/09/12 03:05:30;;;;;;;6.88;6.22;;;18.40;99.90;;;;;;5014490;28;20068;-63
2023/09/12 03:07:56;;;;;;;6.43;5.82;;;18.40;99.90;;;;;;5014594;28;20462;-63
2023/09/12 03:10:21;;;;;;;6.70;6.20;;;18.40;99.90;;;;;;5014481;28;20041;-62
2023/09/12 03:12:47;;;;;;;7.38;6.68;;;18.40;99.90;;;;;;5013297;28;20452;-63
2023/09/12 03:15:13;;;;;;;6.22;5.72;;;18.40;99.90;;;;;;5014171;28;20390;-62
2023/09/12 03:17:38;;;;;;;6.03;5.53;;;18.40;99.90;;;;;;5014470;28;20037;-63
2023/09/12 03:20:08;;;;;;;6.63;6.10;;;18.30;99.90;;;;;;5014342;28;20040;-63
2023/09/12 03:22:37;;;;;;;6.72;6.22;;;18.40;99.90;;;;;;5014615;28;20439;-63
2023/09/12 03:25:03;;;;;;;6.72;6.13;;;19.10;99.90;;;;;;5013083;28;20050;-63
2023/09/12 03:27:29;;;;;;;7.10;6.50;;;18.40;99.90;;;;;;5013927;28;20033;-63
2023/09/12 03:29:55;;;;;;;6.68;6.18;;;18.40;99.90;;;;;;4996650;28;20096;-63
2023/09/12 03:32:20;;;;;;;6.18;5.68;;;18.40;99.90;;;;;;5012595;28;20042;-63
2023/09/12 03:34:46;;;;;;;5.93;5.43;;;18.40;99.90;;;;;;5012566;28;20559;-63
2023/09/12 03:37:11;;;;;;;6.22;5.72;;;18.40;99.90;;;;;;5012538;28;20413;-62
2023/09/12 03:39:37;;;;;;;6.05;5.55;;;18.40;99.90;;;;;;5013989;28;20045;-62
2023/09/12 03:42:02;;;;;;;6.47;5.97;;;18.60;99.90;;;;;;5011953;28;20046;-63
2023/09/12 03:44:28;;;;;;;5.75;5.35;;;18.40;99.90;;;;;;5013877;28;20529;-63
2023/09/12 03:46:54;;;;;;;6.15;5.65;;;18.40;99.90;;;;;;5013911;28;20042;-63
2023/09/12 03:49:19;;;;;;;6.00;5.50;;;18.40;99.90;;;;;;5013451;28;20088;-63
2023/09/12 03:51:45;;;;;;;6.40;5.90;;;18.30;99.90;;;;;;5013485;28;20038;-63
2023/09/12 03:54:10;;;;;;;5.80;5.38;;;18.30;99.90;;;;;;5013533;28;20034;-66
2023/09/12 03:56:36;;;;;;;6.80;6.20;;;18.20;99.90;;;;;;5013432;28;20189;-66
2023/09/12 03:59:02;;;;;;;5.72;5.22;;;18.60;99.90;;;;;;5013683;28;20049;-66
2023/09/12 04:01:28;;;;;;;6.45;5.95;;;18.20;99.90;;;;;;5013356;28;20516;-66
2023/09/12 04:03:54;;;;;;;6.30;5.80;;;18.20;99.90;;;;;;4995586;28;20054;-66
2023/09/12 04:06:19;;;;;;;6.55;6.05;;;18.10;99.90;;;;;;5013308;28;20470;-66
2023/09/12 04:08:45;;;;;;;6.55;6.05;;;18.10;99.90;;;;;;4995787;28;20034;-66
2023/09/12 04:11:11;;;;;;;6.05;5.55;;;17.90;99.90;;;;;;5013249;28;20049;-66
2023/09/12 04:13:36;;;;;;;6.03;5.53;;;18.00;99.90;;;;;;5013328;28;20044;-63
2023/09/12 04:16:02;;;;;;;6.90;6.30;;;18.00;99.90;;;;;;5013461;28;20117;-63
2023/09/12 04:18:28;;;;;;;6.80;5.82;;;18.00;99.90;;;;;;5013451;28;20049;-63
2023/09/12 04:20:57;;;;;;;6.18;5.68;;;17.90;99.90;;;;;;5013127;28;20069;-63
2023/09/12 04:23:22;;;;;;;6.32;5.82;;;18.00;99.90;;;;;;5013076;28;20042;-63
2023/09/12 04:25:48;;;;;;;6.97;6.38;;;17.90;99.90;;;;;;5013350;28;20038;-63
2023/09/12 04:28:13;;;;;;;5.85;5.25;;;17.90;99.90;;;;;;5013110;28;20113;-63
2023/09/12 04:30:39;;;;;;;6.20;5.75;;;17.80;99.90;;;;;;5013337;28;20103;-63
2023/09/12 04:33:05;;;;;;;7.38;6.68;;;17.90;99.90;;;;;;5011884;28;20120;-63
2023/09/12 04:35:34;;;;;;;6.68;6.07;;;17.80;99.90;;;;;;5013274;28;20081;-63
2023/09/12 04:38:00;;;;;;;7.07;6.47;;;17.70;99.90;;;;;;5013305;28;20045;-63
2023/09/12 04:40:26;;;;;;;6.72;6.22;;;17.80;99.90;;;;;;5013039;28;20121;-63
2023/09/12 04:42:51;;;;;;;6.35;5.85;;;17.80;99.90;;;;;;5013267;28;20034;-63
2023/09/12 04:45:17;;;;;;;5.90;5.40;;;17.50;99.90;;;;;;5013063;28;20593;-63
2023/09/12 04:47:42;;;;;;;6.25;5.65;;;17.80;99.90;;;;;;5012869;28;20482;-63
2023/09/12 04:50:08;;;;;;;6.43;5.82;;;17.70;99.90;;;;;;5013160;28;20038;-63
2023/09/12 04:52:34;;;;;;;6.35;5.75;;;17.80;99.90;;;;;;5012904;28;20038;-63
2023/09/12 04:55:07;;;;;;;6.10;5.50;;;17.70;99.90;;;;;;5016666;28;20485;-63
2023/09/12 04:57:33;;;;;;;6.70;5.53;;;17.70;99.90;;;;;;5016749;28;20038;-63
2023/09/12 04:59:59;;;;;;;7.00;5.15;;;17.70;99.90;;;;;;5016621;28;20038;-63
2023/09/12 05:02:25;;;;;;;8.05;5.43;;;17.60;99.90;;;;;;5016699;28;20034;-63
2023/09/12 05:04:53;;;;;;;8.55;5.28;;;17.60;99.90;;;;;;5016834;28;20054;-66
2023/09/12 05:07:19;;;;;;;4.75;4.38;;;17.60;99.90;;;;;;5016550;28;20116;-66
2023/09/12 05:09:44;;;;;;;5.13;4.35;;;17.70;99.90;;;;;;5015628;28;20076;-66
2023/09/12 05:12:10;;;;;;;7.20;4.63;;;17.50;99.90;;;;;;5015509;28;20042;-66
2023/09/12 05:14:36;;;;;;;8.80;5.13;;;17.50;99.90;;;;;;5016726;28;20034;-66
2023/09/12 05:17:01;;;;;;;5.65;5.07;;;17.60;99.90;;;;;;5016658;28;20034;-66
2023/09/12 05:19:29;;;;;;;5.82;5.32;;;17.50;99.90;;;;;;5016625;28;20129;-66
2023/09/12 05:21:55;;;;;;;6.45;5.88;;;17.50;99.90;;;;;;5016307;28;20038;-67
2023/09/12 05:24:21;;;;;;;5.75;5.22;;;17.50;99.90;;;;;;5016412;28;20389;-67
2023/09/12 05:26:49;;;;;;;4.95;4.55;;;17.50;99.90;;;;;;5016364;28;20042;-67
2023/09/12 05:29:14;;;;;;;5.72;5.22;;;17.50;99.90;;;;;;5016477;28;20038;-67
2023/09/12 05:31:40;;;;;;;5.90;5.40;;;17.50;99.90;;;;;;5016058;28;20034;-66
2023/09/12 05:34:05;;;;;;;6.45;4.97;;;17.50;99.90;;;;;;5016317;28;20175;-67
2023/09/12 05:36:31;;;;;;;6.22;5.63;;;17.70;99.90;;;;;;5016223;28;20052;-66
2023/09/12 05:38:57;;;;;;;5.75;5.25;;;17.50;99.90;;;;;;5015948;28;20095;-66
2023/09/12 05:41:23;;;;;;;5.85;5.35;;;17.50;99.90;;;;;;5015972;28;20046;-66
2023/09/12 05:43:49;;;;;;;5.88;5.38;;;17.50;99.90;;;;;;5014679;28;20048;-66
2023/09/12 05:46:14;;;;;;;5.97;5.47;;;17.40;99.90;;;;;;5016016;28;20432;-67
2023/09/12 05:48:40;;;;;;;5.40;4.93;;;17.50;99.90;;;;;;5014620;28;20034;-67
2023/09/12 05:51:05;;;;;;;6.00;5.50;;;17.50;99.90;;;;;;5014468;28;20045;-67
2023/09/12 05:53:31;;;;;;;11.73;6.45;;;17.50;99.90;;;;;;5015974;28;20029;-67
2023/09/12 05:55:56;;;;;;;8.95;5.53;;;17.50;99.90;;;;;;5015921;28;20038;-67
2023/09/12 05:58:22;;;;;;;10.70;5.97;;;17.50;99.90;;;;;;5015821;28;20393;-68
2023/09/12 06:00:48;;;;;;;9.48;6.38;;;17.30;99.90;;;;;;5015583;28;20397;-68
2023/09/12 06:03:15;;;;;;;6.70;5.85;;;17.50;99.90;;;;;;5015569;28;20100;-63
2023/09/12 06:05:41;;;;;;;9.45;5.50;;;17.50;99.90;;;;;;5014740;28;20053;-65
2023/09/12 06:08:07;;;;;;;10.48;5.78;;;17.60;99.90;;;;;;5015413;28;20061;-64
2023/09/12 06:10:33;;;;;;;6.72;5.95;;;17.60;99.90;;;;;;5014158;28;20034;-65
2023/09/12 06:12:59;;;;;;;6.90;5.30;;;17.60;99.90;;;;;;5014430;28;20112;-66
2023/09/12 06:15:25;;;;;;;5.72;5.13;;;17.60;99.90;;;;;;5015173;28;20045;-65
2023/09/12 06:17:50;;;;;;;5.55;5.10;;;17.70;99.90;;;;;;5013981;28;20045;-65
2023/09/12 06:20:16;;;;;;;5.60;4.70;;;17.80;99.90;;;;;;5013827;28;20041;-64
2023/09/12 06:22:43;;;;;;;5.72;5.22;;;17.90;99.90;;;;;;5015404;28;20046;-64
2023/09/12 06:25:08;;;;;;;5.68;5.18;;;18.30;99.90;;;;;;5015060;28;20045;-64
2023/09/12 06:27:34;;;;;;;5.22;4.70;;;17.80;99.90;;;;;;5015250;28;20042;-64
2023/09/12 06:30:00;;;;;;;5.65;4.43;;;17.40;99.90;;;;;;5015009;28;20034;-64
2023/09/12 06:32:25;;;;;;;6.47;5.03;;;17.90;99.90;;;;;;5015245;28;20077;-64
2023/09/12 06:34:51;;;;;;;5.40;4.90;;;17.80;99.90;;;;;;5013786;28;20114;-64
2023/09/12 06:37:16;;;;;;;5.65;5.20;;;18.30;99.90;;;;;;5015101;28;20445;-64
2023/09/12 06:39:42;;;;;;;5.72;5.22;;;17.80;99.90;;;;;;5014848;28;20073;-64
2023/09/12 06:42:08;;;;;;;5.03;4.57;;;18.60;99.90;;;;;;5013515;28;20381;-63
2023/09/12 06:44:34;;;;;;;5.32;4.85;;;17.90;99.90;;;;;;5014893;28;20038;-64
2023/09/12 06:46:59;;;;;;;5.60;5.10;;;17.90;99.90;;;;;;5015024;28;20048;-64
2023/09/12 06:49:25;;;;;;;6.07;5.57;;;18.10;99.90;;;;;;5014948;28;20030;-64
2023/09/12 06:51:51;;;;;;;5.00;4.60;;;18.00;99.90;;;;;;5014847;28;20042;-64
2023/09/12 06:54:16;;;;;;;5.85;5.45;;;18.10;99.90;;;;;;5014732;28;20034;-64
2023/09/12 06:56:42;;;;;;;6.13;5.65;;;18.10;99.90;;;;;;5014748;28;20034;-64
2023/09/12 06:59:08;;;;;;;5.57;5.07;;;18.00;99.90;;;;;;5014528;28;20042;-64
2023/09/12 07:01:34;;;;;;;5.63;5.22;;;18.10;99.90;;;;;;5014711;28;20396;-64
2023/09/12 07:04:00;;;;;;;6.38;5.88;;;18.20;99.90;;;;;;5014267;28;20398;-64
2023/09/12 07:06:25;;;;;;;6.03;5.55;;;18.20;99.90;;;;;;5013016;28;20052;-64
2023/09/12 07:08:51;;;;;;;5.93;5.43;;;18.30;99.90;;;;;;5014575;28;20113;-64
2023/09/12 07:11:17;;;;;;;5.75;5.25;;;18.70;99.90;;;;;;5014516;28;20038;-64
2023/09/12 07:13:42;;;;;;;5.60;5.20;;;18.40;99.90;;;;;;5014527;28;20041;-67
2023/09/12 07:16:08;;;;;;;6.30;5.80;;;18.40;99.90;;;;;;5014211;28;20156;-68
2023/09/12 07:18:34;;;;;;;6.32;5.82;;;18.70;99.90;;;;;;5012892;28;20051;-68
2023/09/12 07:21:01;;;;;;;5.82;5.32;;;18.60;99.90;;;;;;5014304;28;20046;-67
2023/09/12 07:23:27;;;;;;;5.93;5.38;;;18.70;99.90;;;;;;5014254;28;20081;-68
2023/09/12 07:25:59;;;;;;;6.40;5.90;;;18.70;99.90;;;;;;5014249;28;20072;-68
2023/09/12 07:28:30;;;;;;;6.60;6.05;;;18.80;99.90;;;;;;5012860;28;20408;-68
2023/09/12 07:30:56;;;;;;;6.25;5.65;;;18.80;99.90;;;;;;5014136;28;20061;-67
2023/09/12 07:33:22;;;;;;;6.65;6.15;;;18.90;99.90;;;;;;5013987;28;20068;-67
2023/09/12 07:35:48;;;;;;;5.90;5.50;;;18.90;99.90;;;;;;5013652;28;20033;-67
2023/09/12 07:38:17;;;;;;;6.40;5.90;;;19.00;99.90;;;;;;5013828;28;20409;-68
2023/09/12 07:40:43;;;;;;;6.18;5.68;;;19.00;99.90;;;;;;5013934;28;20038;-67
2023/09/12 07:43:09;;;;;;;6.88;6.32;;;19.00;99.90;;;;;;5013636;28;20049;-66
2023/09/12 07:45:37;;;;;;;6.78;6.18;;;19.10;99.90;;;;;;5013672;28;20057;-67
2023/09/12 07:48:07;;;;;;;6.93;6.30;;;19.20;99.90;;;;;;5013465;28;20121;-67
2023/09/12 07:50:32;;;;;;;5.97;5.47;;;19.70;99.90;;;;;;5013768;28;20060;-67
2023/09/12 07:52:58;;;;;;;7.10;6.57;;;19.40;99.90;;;;;;5013766;28;20125;-67
2023/09/12 07:55:23;;;;;;;7.57;6.88;;;19.50;99.90;;;;;;5013348;28;20124;-67
2023/09/12 07:57:49;;;;;;;7.07;6.57;;;19.60;99.90;;;;;;5013468;28;20053;-67
2023/09/12 08:00:16;;;;;;;6.93;6.43;;;19.80;99.90;;;;;;5013469;28;20444;-67
2023/09/12 08:02:41;;;;;;;7.15;6.55;;;19.90;99.90;;;;;;5013349;28;20129;-67
2023/09/12 08:05:08;;;;;;;7.30;6.70;;;19.90;99.90;;;;;;5013427;28;20446;-67
2023/09/12 08:07:34;;;;;;;6.53;6.03;;;20.00;99.90;;;;;;5013234;28;20041;-67
2023/09/12 08:10:00;;;;;;;6.80;6.25;;;;;;;;;;5012069;28;20497;-67
2023/09/12 08:12:27;;;;;;;6.70;6.20;;;;;;;;;;5012385;28;20033;-67
2023/09/12 08:14:53;;;;;;;7.38;6.68;;;;;;;;;;5013530;28;20041;-67
2023/09/12 08:17:19;;;;;;;7.20;6.60;;;;;;;;;;4995893;28;20124;-67
2023/09/12 08:19:45;;;;;;;6.63;6.10;;;;;;;;;;5012266;28;20501;-67
2023/09/12 08:22:12;;;;;;;7.47;6.78;;;;;;;;;;5013169;28;20070;-67
2023/09/12 08:24:39;;;;;;;6.80;6.28;;;;;;;;;;5011880;28;20073;-67
2023/09/12 08:27:06;;;;;;;7.85;7.25;;;;;;;;;;5013410;28;20041;-67
2023/09/12 08:29:32;;;;;;;7.47;6.78;;;;;;;;;;5012573;28;20049;-68
2023/09/12 08:31:58;;;;;;;7.13;6.53;;;;;;;;;;5011856;28;20037;-68
2023/09/12 08:34:24;;;;;;;7.65;7.05;;;;;;;;;;5013156;28;20042;-68
2023/09/12 08:36:51;;;;;;;7.15;6.65;;;;;;;;;;5012984;28;20109;-68
2023/09/12 08:39:23;;;;;;;7.70;7.00;;;;;;;;;;5012915;28;20120;-68
2023/09/12 08:41:50;;;;;;;7.05;6.43;;;;;;;;;;4995694;28;20072;-68
2023/09/12 08:44:16;;;;;;;6.55;6.05;;;;;;;;;;5013246;28;20053;-68
2023/09/12 08:46:42;;;;;;;7.05;6.53;;;;;;;;;;5013091;28;20045;-69
2023/09/12 08:49:09;;;;;;;7.18;6.57;;;;;;;;;;5013057;28;20135;-68
2023/09/12 08:51:36;;;;;;;6.90;6.35;;;;;;;;;;5012758;28;20049;-68
2023/09/12 08:54:03;;;;;;;7.22;6.63;;;;;;;;;;5013203;28;20470;-68
2023/09/12 08:56:30;;;;;;;6.45;5.88;;;;;;;;;;5013145;28;20053;-68
2023/09/12 08:58:56;;;;;;;7.88;7.22;;;;;;;;;;5013139;28;20397;-68
2023/09/12 09:01:22;;;;;;;7.63;7.03;;;;;;;;;;5012988;28;20038;-68
2023/09/12 09:03:49;;;;;;;6.30;5.80;;;;;;;;;;5012687;28;20156;-68
2023/09/12 09:06:16;;;;;;;6.68;6.18;;;;;;;;;;5011458;28;20045;-68
2023/09/12 09:08:43;;;;;;;6.95;6.35;;;;;;;;;;5013005;28;20444;-68
2023/09/12 09:11:10;;;;;;;7.43;6.82;;;;;;;;;;5012504;28;20042;-68
2023/09/12 09:13:36;;;;;;;7.38;6.78;;;;;;;;;;5012450;28;20116;-68
2023/09/12 09:16:18;;;;;;;7.60;6.90;;;;;;;;;;5012753;28;20041;-68
2023/09/12 09:18:54;;;;;;;6.10;5.60;;;;;;;;;;5012820;28;20054;-68
2023/09/12 09:21:24;;;;;;;6.25;5.75;;;;;;;;;;5012739;28;20053;-68
2023/09/12 09:23:50;;;;;;;6.32;5.82;;;;;;;;;;5012852;28;20053;-68
2023/09/12 09:26:16;;;;;;;6.60;6.10;;;;;;;;;;5012415;28;20052;-68
2023/09/12 09:28:42;;;;;;;5.90;5.45;;;;;;;;;;5012611;28;20046;-68
2023/09/12 09:31:14;;;;;;;6.82;6.20;;;;;;;;;;5012568;28;20038;-68
2023/09/12 09:33:41;;;;;;;5.80;5.30;;;;;;;;;;5011137;28;20153;-68
2023/09/12 09:36:08;;;;;;;5.35;4.95;;;;;;;;;;5011202;28;20129;-68
2023/09/12 09:38:35;;;;;;;6.07;5.57;;;;;;;;;;5011482;28;20044;-68
2023/09/12 09:41:04;;;;;;;6.22;5.72;;;;;;;;;;5014419;28;20048;-68
2023/09/12 09:43:32;;;;;;;6.15;5.65;;;;;;;;;;5015024;28;20073;-64
2023/09/12 09:45:59;;;;;;;6.30;5.80;;;;;;;;;;5014687;28;20115;-64
2023/09/12 09:48:28;;;;;;;6.57;6.07;;;;;;;;;;5016081;28;20030;-64
2023/09/12 09:51:04;;;;;;;7.20;6.70;;;;;;;;;;5015765;28;20045;-64
2023/09/12 09:53:32;;;;;;;6.28;5.78;;;;;;;;;;5014648;28;20077;-64
2023/09/12 09:56:14;;;;;;;6.22;5.72;;;;;;;;;;5015728;28;20046;-64
2023/09/12 09:58:53;;;;;;;6.47;5.97;;;;;;;;;;5015596;28;20042;-64
2023/09/12 10:01:20;;;;;;;6.40;5.80;;;;;;;;;;5015794;28;20396;-64
2023/09/12 10:03:49;;;;;;;5.75;5.35;;;;;;;;;;5015535;28;20502;-68
2023/09/12 10:06:17;;;;;;;6.28;5.78;;;;;;;;;;5015682;28;20152;-68
2023/09/12 10:08:46;;;;;;;6.53;5.93;;;;;;;;;;5015734;28;20057;-68
2023/09/12 10:11:15;;;;;;;5.97;5.47;;;21.10;99.90;;;;;;5015689;28;20436;-68
2023/09/12 10:13:51;;;;;;;5.97;5.47;;;21.20;99.90;;;;;;5014165;28;20048;-68
2023/09/12 10:16:20;;;;;;;6.00;5.45;;;21.20;99.90;;;;;;5015603;28;20387;-66
2023/09/12 10:19:03;;;;;;;5.57;5.18;;;21.40;99.90;;;;;;5015471;28;20050;-67
2023/09/12 10:21:33;;;;;;;6.32;5.82;;;21.10;99.90;;;;;;5013937;28;20124;-67
2023/09/12 10:24:00;;;;;;;6.50;5.90;;;21.20;99.90;;;;;;4997799;28;20235;-67
2023/09/12 10:26:27;;;;;;;6.03;5.53;;;21.10;99.90;;;;;;5015054;28;20092;-67
2023/09/12 10:28:55;;;;;;;5.57;5.18;;;21.00;99.90;;;;;;5015320;28;20065;-66
2023/09/12 10:31:23;;;;;;;5.45;4.82;;;21.10;99.90;;;;;;5014902;28;20526;-68
2023/09/12 10:33:50;;;;;;;6.10;5.60;;;21.30;99.90;;;;;;5015171;28;20049;-68
2023/09/12 10:36:19;;;;;;;6.03;5.53;;;21.50;99.90;;;;;;5015198;28;20584;-69
2023/09/12 10:38:47;;;;;;;5.65;5.15;;;21.70;99.90;;;;;;5013684;28;20466;-68
2023/09/12 10:41:14;;;;;;;5.32;4.93;;;22.00;99.90;;;;;;5015077;28;20113;-68
2023/09/12 10:43:41;;;;;;;5.22;4.82;;;22.10;99.90;;;;;;5013508;28;20084;-66
2023/09/12 10:46:07;;;;;;;5.22;4.82;;;22.10;99.90;;;;;;5014616;28;20497;-69
2023/09/12 10:48:35;;;;;;;4.95;4.55;;;22.10;99.90;;;;;;5014629;28;20072;-67
2023/09/12 10:51:04;;;;;;;5.20;4.80;;;22.10;99.90;;;;;;5012951;28;20042;-67
2023/09/12 10:53:30;;;;;;;5.50;5.10;;;22.10;99.90;;;;;;5014836;28;20064;-67
2023/09/12 10:56:12;;;;;;;5.18;4.78;;;22.10;99.90;;;;;;5014938;28;20045;-67
2023/09/12 10:59:06;;;;;;;4.65;4.35;;;22.10;99.90;;;;;;4996947;28;20413;-67
2023/09/12 11:01:36;;;;;;;5.30;4.90;;;22.20;99.90;;;;;;5014246;28;20042;-65
2023/09/12 11:04:27;;;;;;;5.05;4.65;;;22.20;99.90;;;;;;5014253;28;20136;-65
2023/09/12 11:06:53;;;;;;;5.68;5.20;;;22.20;99.90;;;;;;5014141;28;20085;-65
2023/09/12 11:09:25;;;;;;;4.40;4.10;;;22.30;99.90;;;;;;5014508;28;20069;-65
2023/09/12 11:11:58;;;;;;;4.40;4.07;;;22.30;99.90;;;;;;5013218;28;20485;-65
2023/09/12 11:14:26;;;;;;;4.72;4.38;;;22.30;99.90;;;;;;5014687;28;20477;-61
2023/09/12 11:17:24;;;;;;;5.25;4.75;;;22.40;99.90;;;;;;5014330;28;20053;-61
2023/09/12 11:19:54;;;;;;;4.60;4.20;;;22.40;99.90;;;;;;4981475;28;20144;-60
2023/09/12 11:22:30;;;;;;;4.10;3.80;;;22.50;99.90;;;;;;5012967;28;20046;-61
2023/09/12 11:24:57;;;;;;;5.13;4.72;;;22.70;99.90;;;;;;5012806;28;20433;-62
2023/09/12 11:28:06;;;;;;;5.43;4.95;;;22.60;99.90;;;;;;5012909;28;20124;-62
2023/09/12 11:30:32;;;;;;;5.10;4.70;;;22.70;99.90;;;;;;4953660;29;20047;-61
2023/09/12 11:32:59;;;;;;;4.75;4.35;;;22.80;99.90;;;;;;5001756;28;20046;-61
2023/09/12 11:35:29;;;;;;;5.20;4.80;;;23.10;99.90;;;;;;5013075;28;20485;-62
2023/09/12 11:37:59;;;;;;;4.50;4.17;;;22.80;99.90;;;;;;5014392;28;20046;-62
2023/09/12 11:40:42;;;;;;;4.63;4.32;;;22.80;99.90;;;;;;5014160;28;20092;-62
2023/09/12 11:43:19;;;;;;;5.80;5.30;;;22.80;99.90;;;;;;5014160;28;20038;-63
2023/09/12 11:45:45;;;;;;;4.80;4.40;;;22.80;99.90;;;;;;5012546;28;20071;-62
2023/09/12 11:48:11;;;;;;;5.25;4.85;;;22.80;99.90;;;;;;4996430;28;20042;-62
2023/09/12 11:50:38;;;;;;;4.93;4.53;;;22.80;99.90;;;;;;5012320;28;20037;-62
2023/09/12 11:53:07;;;;;;;5.15;4.72;;;22.90;99.90;;;;;;5012402;28;20073;-62
2023/09/12 11:55:53;;;;;;;4.88;4.47;;;22.80;99.90;;;;;;5012552;28;20049;-63
2023/09/12 11:58:19;;;;;;;6.10;5.60;;;22.90;99.90;;;;;;5013811;28;20084;-62
2023/09/12 12:00:52;;;;;;;4.80;4.40;;;23.00;99.90;;;;;;5013472;28;20436;-62
2023/09/12 12:03:23;;;;;;;4.38;3.97;;;23.00;99.90;;;;;;5012691;28;20085;-62
2023/09/12 12:05:48;;;;;;;;;;;22.90;99.90;;;;;;5012351;28;20041;-66
2023/09/12 12:08:16;;;;;;;4.75;4.35;;;22.90;95.50;;;;;;5011928;28;19966;-66
2023/09/12 12:10:41;;;;;;;4.72;4.32;;;23.00;99.10;;;;;;5013166;28;20038;-66
2023/09/12 12:13:12;;;;;;;4.40;3.88;;;22.90;98.70;;;;;;5011809;28;20374;-66
2023/09/12 12:15:37;;;;;;;;;;;22.90;98.30;;;;;;5012289;28;20120;-66
2023/09/12 12:18:04;;;;;;;4.68;4.35;;;23.00;97.60;;;;;;5013308;28;20341;-66
2023/09/12 12:20:30;;;;;;;4.13;3.75;;;22.80;99.30;;;;;;5013300;28;20045;-67
2023/09/12 12:22:56;;;;;;;4.53;4.13;;;22.80;99.80;;;;;;5013361;28;20121;-66
2023/09/12 12:25:22;;;;;;;3.85;3.55;;;22.80;99.90;;;;;;5013140;28;20429;-72
2023/09/12 12:27:48;;;;;;;4.03;3.72;;;22.70;99.90;;;;;;5011947;28;20042;-72
2023/09/12 12:30:14;;;;;;;4.00;3.70;;;22.60;99.90;;;;;;5012002;28;20085;-70
2023/09/12 12:32:49;;;;;;;3.78;3.47;;;22.60;99.90;;;;;;5011748;28;20053;-71
2023/09/12 12:35:23;;;;;;;3.80;3.50;;;22.60;99.90;;;;;;5011879;28;20057;-72
2023/09/12 12:37:55;;;;;;;4.15;3.85;;;22.50;99.90;;;;;;5013115;28;20054;-73
2023/09/12 12:40:21;;;;;;;3.97;3.67;;;22.50;99.80;;;;;;5011610;28;20053;-72
2023/09/12 12:42:47;;;;;;;4.20;3.90;;;22.50;99.90;;;;;;5013015;28;20084;-72
2023/09/12 12:45:14;;;;;;;4.28;3.97;;;22.40;99.90;;;;;;4995233;28;20042;-73
2023/09/12 12:47:41;;;;;;;4.47;4.07;;;22.40;99.90;;;;;;5011726;28;20042;-74
2023/09/12 12:50:20;;;;;;;4.43;4.10;;;22.50;99.90;;;;;;5013193;28;20118;-72
2023/09/12 12:52:47;;;;;;;4.97;4.57;;;22.40;99.90;;;;;;5012019;28;20096;-72
2023/09/12 12:55:17;;;;;;;4.35;4.03;;;22.20;99.90;;;;;;5012926;28;20042;-72
2023/09/12 12:57:43;;;;;;;4.05;3.75;;;22.30;99.90;;;;;;5013191;28;20050;-72
2023/09/12 13:00:18;;;;;;;4.63;4.22;;;22.30;99.90;;;;;;5012777;28;20100;-72
2023/09/12 13:02:45;;;;;;;4.47;4.15;;;22.30;99.90;;;;;;5011748;28;20053;-72
2023/09/12 13:05:25;;;;;;;4.50;4.07;;;22.70;99.90;;;;;;5011454;28;20508;-72